sensor_id;sensor_type;location;lat;lon;timestamp;P1;durP1;ratioP1;P2;durP2;ratioP2
23498;SDS011;11926;48.120;11.562;2023-02-28T00:00:06;11.18;;;3.17;;
23498;SDS011;11926;48.120;11.562;2023-02-28T00:02:57;9.55;;;3.70;;
23498;SDS011;11926;48.120;11.562;2023-02-28T00:05:45;6.18;;;3.30;;
23498;SDS011;11926;48.120;11.562;2023-02-28T00:08:32;5.47;;;3.10;;
23498;SDS011;11926;48.120;11.562;2023-02-28T00:11:20;5.90;;;3.03;;
23498;SDS011;11926;48.120;11.562;2023-02-28T00:14:09;6.40;;;3.38;;
23498;SDS011;11926;48.120;11.562;2023-02-28T00:16:57;5.55;;;3.38;;
23498;SDS011;11926;48.120;11.562;2023-02-28T00:19:46;5.57;;;2.63;;
23498;SDS011;11926;48.120;11.562;2023-02-28T00:22:35;7.25;;;3.30;;
23498;SDS011;11926;48.120;11.562;2023-02-28T00:25:25;8.93;;;4.00;;
23498;SDS011;11926;48.120;11.562;2023-02-28T00:28:12;6.38;;;3.40;;
23498;SDS011;11926;48.120;11.562;2023-02-28T00:31:00;7.18;;;3.58;;
23498;SDS011;11926;48.120;11.562;2023-02-28T00:33:48;7.43;;;3.50;;
23498;SDS011;11926;48.120;11.562;2023-02-28T00:36:40;6.80;;;3.28;;
23498;SDS011;11926;48.120;11.562;2023-02-28T00:39:30;7.30;;;3.58;;
23498;SDS011;11926;48.120;11.562;2023-02-28T00:42:19;8.00;;;3.28;;
23498;SDS011;11926;48.120;11.562;2023-02-28T00:45:07;6.45;;;3.42;;
23498;SDS011;11926;48.120;11.562;2023-02-28T00:47:56;7.78;;;3.72;;
23498;SDS011;11926;48.120;11.562;2023-02-28T00:50:43;7.35;;;3.80;;
23498;SDS011;11926;48.120;11.562;2023-02-28T00:53:32;9.30;;;4.32;;
23498;SDS011;11926;48.120;11.562;2023-02-28T00:56:20;6.90;;;3.45;;
23498;SDS011;11926;48.120;11.562;2023-02-28T00:59:07;7.95;;;4.50;;
23498;SDS011;11926;48.120;11.562;2023-02-28T01:01:57;8.07;;;3.88;;
23498;SDS011;11926;48.120;11.562;2023-02-28T01:04:45;7.78;;;3.90;;
23498;SDS011;11926;48.120;11.562;2023-02-28T01:07:32;8.90;;;4.15;;
23498;SDS011;11926;48.120;11.562;2023-02-28T01:10:21;6.90;;;3.70;;
23498;SDS011;11926;48.120;11.562;2023-02-28T01:13:09;7.07;;;3.65;;
23498;SDS011;11926;48.120;11.562;2023-02-28T01:15:57;9.05;;;3.88;;
23498;SDS011;11926;48.120;11.562;2023-02-28T01:18:45;9.70;;;4.28;;
23498;SDS011;11926;48.120;11.562;2023-02-28T01:21:35;11.55;;;4.60;;
23498;SDS011;11926;48.120;11.562;2023-02-28T01:24:23;11.10;;;4.80;;
23498;SDS011;11926;48.120;11.562;2023-02-28T01:27:12;10.15;;;4.53;;
23498;SDS011;11926;48.120;11.562;2023-02-28T01:29:59;8.18;;;3.78;;
23498;SDS011;11926;48.120;11.562;2023-02-28T01:32:47;7.20;;;3.70;;
23498;SDS011;11926;48.120;11.562;2023-02-28T01:35:36;7.70;;;3.97;;
23498;SDS011;11926;48.120;11.562;2023-02-28T01:38:26;6.57;;;3.13;;
23498;SDS011;11926;48.120;11.562;2023-02-28T01:41:15;8.88;;;3.40;;
23498;SDS011;11926;48.120;11.562;2023-02-28T01:44:53;8.23;;;3.53;;
23498;SDS011;11926;48.120;11.562;2023-02-28T01:50:17;7.22;;;3.90;;
23498;SDS011;11926;48.120;11.562;2023-02-28T01:53:08;7.90;;;4.30;;
23498;SDS011;11926;48.120;11.562;2023-02-28T01:56:00;7.97;;;4.15;;
23498;SDS011;11926;48.120;11.562;2023-02-28T02:01:42;6.80;;;3.67;;
23498;SDS011;11926;48.120;11.562;2023-02-28T02:04:32;8.07;;;3.92;;
23498;SDS011;11926;48.120;11.562;2023-02-28T02:07:24;5.97;;;2.75;;
23498;SDS011;11926;48.120;11.562;2023-02-28T02:10:16;8.23;;;4.00;;
23498;SDS011;11926;48.120;11.562;2023-02-28T02:13:10;8.85;;;4.13;;
23498;SDS011;11926;48.120;11.562;2023-02-28T02:16:10;7.95;;;4.55;;
23498;SDS011;11926;48.120;11.562;2023-02-28T02:19:11;10.90;;;4.80;;
23498;SDS011;11926;48.120;11.562;2023-02-28T02:22:21;7.65;;;4.13;;
23498;SDS011;11926;48.120;11.562;2023-02-28T02:25:26;7.93;;;4.47;;
23498;SDS011;11926;48.120;11.562;2023-02-28T02:31:46;8.18;;;3.90;;
23498;SDS011;11926;48.120;11.562;2023-02-28T02:34:52;7.90;;;4.10;;
23498;SDS011;11926;48.120;11.562;2023-02-28T02:37:50;7.90;;;4.05;;
23498;SDS011;11926;48.120;11.562;2023-02-28T02:40:46;7.88;;;4.20;;
23498;SDS011;11926;48.120;11.562;2023-02-28T02:43:39;8.50;;;4.50;;
23498;SDS011;11926;48.120;11.562;2023-02-28T02:46:32;7.32;;;3.78;;
23498;SDS011;11926;48.120;11.562;2023-02-28T02:49:22;9.25;;;3.90;;
23498;SDS011;11926;48.120;11.562;2023-02-28T02:52:15;8.02;;;4.25;;
23498;SDS011;11926;48.120;11.562;2023-02-28T02:55:10;9.68;;;4.65;;
23498;SDS011;11926;48.120;11.562;2023-02-28T02:58:02;7.65;;;4.10;;
23498;SDS011;11926;48.120;11.562;2023-02-28T03:00:55;8.50;;;4.68;;
23498;SDS011;11926;48.120;11.562;2023-02-28T03:03:46;7.63;;;4.35;;
23498;SDS011;11926;48.120;11.562;2023-02-28T03:06:34;9.57;;;4.88;;
23498;SDS011;11926;48.120;11.562;2023-02-28T03:09:24;9.75;;;4.72;;
23498;SDS011;11926;48.120;11.562;2023-02-28T03:12:13;10.23;;;4.95;;
23498;SDS011;11926;48.120;11.562;2023-02-28T03:15:04;8.75;;;4.68;;
23498;SDS011;11926;48.120;11.562;2023-02-28T03:18:01;11.98;;;4.60;;
23498;SDS011;11926;48.120;11.562;2023-02-28T03:20:56;8.13;;;4.45;;
23498;SDS011;11926;48.120;11.562;2023-02-28T03:23:58;9.02;;;4.30;;
23498;SDS011;11926;48.120;11.562;2023-02-28T03:26:58;10.13;;;5.47;;
23498;SDS011;11926;48.120;11.562;2023-02-28T03:29:56;9.57;;;4.88;;
23498;SDS011;11926;48.120;11.562;2023-02-28T03:32:51;12.63;;;5.43;;
23498;SDS011;11926;48.120;11.562;2023-02-28T03:35:47;10.55;;;5.25;;
23498;SDS011;11926;48.120;11.562;2023-02-28T03:38:40;10.00;;;5.45;;
23498;SDS011;11926;48.120;11.562;2023-02-28T03:41:31;12.10;;;5.32;;
23498;SDS011;11926;48.120;11.562;2023-02-28T03:44:26;12.95;;;4.53;;
23498;SDS011;11926;48.120;11.562;2023-02-28T03:47:20;12.10;;;5.20;;
23498;SDS011;11926;48.120;11.562;2023-02-28T03:50:12;10.57;;;5.07;;
23498;SDS011;11926;48.120;11.562;2023-02-28T03:53:06;8.80;;;4.53;;
23498;SDS011;11926;48.120;11.562;2023-02-28T03:55:59;10.05;;;5.18;;
23498;SDS011;11926;48.120;11.562;2023-02-28T03:58:55;11.77;;;5.88;;
23498;SDS011;11926;48.120;11.562;2023-02-28T04:01:48;12.25;;;6.03;;
23498;SDS011;11926;48.120;11.562;2023-02-28T04:04:37;11.50;;;6.15;;
23498;SDS011;11926;48.120;11.562;2023-02-28T04:07:30;13.25;;;6.20;;
23498;SDS011;11926;48.120;11.562;2023-02-28T04:10:19;11.98;;;6.05;;
23498;SDS011;11926;48.120;11.562;2023-02-28T04:13:07;10.57;;;6.07;;
23498;SDS011;11926;48.120;11.562;2023-02-28T04:15:55;15.35;;;6.07;;
23498;SDS011;11926;48.120;11.562;2023-02-28T04:18:44;11.60;;;6.15;;
23498;SDS011;11926;48.120;11.562;2023-02-28T04:21:33;11.93;;;5.85;;
23498;SDS011;11926;48.120;11.562;2023-02-28T04:24:28;11.00;;;6.25;;
23498;SDS011;11926;48.120;11.562;2023-02-28T04:27:16;12.70;;;6.80;;
23498;SDS011;11926;48.120;11.562;2023-02-28T04:30:05;14.30;;;7.20;;
23498;SDS011;11926;48.120;11.562;2023-02-28T04:32:55;15.50;;;7.32;;
23498;SDS011;11926;48.120;11.562;2023-02-28T04:35:46;13.55;;;7.35;;
23498;SDS011;11926;48.120;11.562;2023-02-28T04:38:34;15.80;;;7.32;;
23498;SDS011;11926;48.120;11.562;2023-02-28T04:41:23;16.30;;;6.95;;
23498;SDS011;11926;48.120;11.562;2023-02-28T04:44:13;15.48;;;7.70;;
23498;SDS011;11926;48.120;11.562;2023-02-28T04:47:02;16.40;;;7.53;;
23498;SDS011;11926;48.120;11.562;2023-02-28T04:49:50;13.63;;;7.18;;
23498;SDS011;11926;48.120;11.562;2023-02-28T04:52:39;15.05;;;7.45;;
23498;SDS011;11926;48.120;11.562;2023-02-28T04:55:27;14.40;;;8.50;;
23498;SDS011;11926;48.120;11.562;2023-02-28T04:58:16;14.95;;;8.10;;
23498;SDS011;11926;48.120;11.562;2023-02-28T05:01:15;15.55;;;7.80;;
23498;SDS011;11926;48.120;11.562;2023-02-28T05:04:05;15.95;;;7.53;;
23498;SDS011;11926;48.120;11.562;2023-02-28T05:06:52;15.90;;;7.97;;
23498;SDS011;11926;48.120;11.562;2023-02-28T05:09:42;14.68;;;7.70;;
23498;SDS011;11926;48.120;11.562;2023-02-28T05:12:29;15.52;;;7.68;;
23498;SDS011;11926;48.120;11.562;2023-02-28T05:15:17;17.40;;;8.50;;
23498;SDS011;11926;48.120;11.562;2023-02-28T05:18:05;14.85;;;7.35;;
23498;SDS011;11926;48.120;11.562;2023-02-28T05:20:52;16.95;;;8.57;;
23498;SDS011;11926;48.120;11.562;2023-02-28T05:23:40;16.60;;;8.20;;
23498;SDS011;11926;48.120;11.562;2023-02-28T05:26:35;19.15;;;8.95;;
23498;SDS011;11926;48.120;11.562;2023-02-28T05:29:26;17.15;;;8.77;;
23498;SDS011;11926;48.120;11.562;2023-02-28T05:32:17;16.90;;;8.85;;
23498;SDS011;11926;48.120;11.562;2023-02-28T05:35:04;18.35;;;9.20;;
23498;SDS011;11926;48.120;11.562;2023-02-28T05:37:53;18.92;;;9.45;;
23498;SDS011;11926;48.120;11.562;2023-02-28T05:40:40;14.98;;;8.60;;
23498;SDS011;11926;48.120;11.562;2023-02-28T05:43:33;16.90;;;8.82;;
23498;SDS011;11926;48.120;11.562;2023-02-28T05:46:21;20.52;;;9.82;;
23498;SDS011;11926;48.120;11.562;2023-02-28T05:49:08;19.25;;;10.13;;
23498;SDS011;11926;48.120;11.562;2023-02-28T05:51:58;18.33;;;10.55;;
23498;SDS011;11926;48.120;11.562;2023-02-28T05:57:39;20.65;;;9.38;;
23498;SDS011;11926;48.120;11.562;2023-02-28T06:00:29;18.20;;;7.80;;
23498;SDS011;11926;48.120;11.562;2023-02-28T06:03:16;22.50;;;12.02;;
23498;SDS011;11926;48.120;11.562;2023-02-28T06:06:04;22.88;;;11.27;;
23498;SDS011;11926;48.120;11.562;2023-02-28T06:08:51;34.47;;;13.27;;
23498;SDS011;11926;48.120;11.562;2023-02-28T06:11:41;20.65;;;10.57;;
23498;SDS011;11926;48.120;11.562;2023-02-28T06:14:29;24.23;;;12.02;;
23498;SDS011;11926;48.120;11.562;2023-02-28T06:17:18;17.20;;;9.23;;
23498;SDS011;11926;48.120;11.562;2023-02-28T06:20:06;23.90;;;10.88;;
23498;SDS011;11926;48.120;11.562;2023-02-28T06:22:55;22.80;;;11.35;;
23498;SDS011;11926;48.120;11.562;2023-02-28T06:25:44;23.88;;;12.25;;
23498;SDS011;11926;48.120;11.562;2023-02-28T06:28:33;21.70;;;11.90;;
23498;SDS011;11926;48.120;11.562;2023-02-28T06:31:23;24.13;;;12.02;;
23498;SDS011;11926;48.120;11.562;2023-02-28T06:34:13;23.50;;;11.63;;
23498;SDS011;11926;48.120;11.562;2023-02-28T06:37:01;22.60;;;11.57;;
23498;SDS011;11926;48.120;11.562;2023-02-28T06:39:51;23.95;;;11.75;;
23498;SDS011;11926;48.120;11.562;2023-02-28T06:42:38;29.05;;;13.05;;
23498;SDS011;11926;48.120;11.562;2023-02-28T06:45:26;24.92;;;11.65;;
23498;SDS011;11926;48.120;11.562;2023-02-28T06:48:16;22.55;;;11.90;;
23498;SDS011;11926;48.120;11.562;2023-02-28T06:51:10;20.25;;;10.63;;
23498;SDS011;11926;48.120;11.562;2023-02-28T06:53:59;25.42;;;12.43;;
23498;SDS011;11926;48.120;11.562;2023-02-28T06:56:47;21.83;;;12.63;;
23498;SDS011;11926;48.120;11.562;2023-02-28T06:59:35;24.88;;;13.43;;
23498;SDS011;11926;48.120;11.562;2023-02-28T07:02:23;22.98;;;12.27;;
23498;SDS011;11926;48.120;11.562;2023-02-28T07:05:10;27.70;;;12.52;;
23498;SDS011;11926;48.120;11.562;2023-02-28T07:07:59;26.10;;;13.55;;
23498;SDS011;11926;48.120;11.562;2023-02-28T07:10:51;22.10;;;12.48;;
23498;SDS011;11926;48.120;11.562;2023-02-28T07:13:40;20.55;;;10.13;;
23498;SDS011;11926;48.120;11.562;2023-02-28T07:16:29;22.88;;;12.82;;
23498;SDS011;11926;48.120;11.562;2023-02-28T07:19:17;27.13;;;13.10;;
23498;SDS011;11926;48.120;11.562;2023-02-28T07:22:07;20.38;;;10.38;;
23498;SDS011;11926;48.120;11.562;2023-02-28T07:24:56;25.02;;;12.70;;
23498;SDS011;11926;48.120;11.562;2023-02-28T07:27:43;27.27;;;12.52;;
23498;SDS011;11926;48.120;11.562;2023-02-28T07:30:30;24.48;;;12.88;;
23498;SDS011;11926;48.120;11.562;2023-02-28T07:33:17;25.42;;;11.95;;
23498;SDS011;11926;48.120;11.562;2023-02-28T07:36:05;24.05;;;13.13;;
23498;SDS011;11926;48.120;11.562;2023-02-28T07:39:00;23.88;;;9.95;;
23498;SDS011;11926;48.120;11.562;2023-02-28T07:41:52;25.02;;;13.50;;
23498;SDS011;11926;48.120;11.562;2023-02-28T07:44:44;23.95;;;12.68;;
23498;SDS011;11926;48.120;11.562;2023-02-28T07:47:31;27.75;;;12.73;;
23498;SDS011;11926;48.120;11.562;2023-02-28T07:50:18;26.30;;;12.60;;
23498;SDS011;11926;48.120;11.562;2023-02-28T07:53:06;22.77;;;13.27;;
23498;SDS011;11926;48.120;11.562;2023-02-28T07:55:54;21.23;;;11.38;;
23498;SDS011;11926;48.120;11.562;2023-02-28T07:58:49;29.48;;;13.77;;
23498;SDS011;11926;48.120;11.562;2023-02-28T08:01:46;23.92;;;13.63;;
23498;SDS011;11926;48.120;11.562;2023-02-28T08:04:42;23.40;;;13.38;;
23498;SDS011;11926;48.120;11.562;2023-02-28T08:07:29;25.55;;;13.05;;
23498;SDS011;11926;48.120;11.562;2023-02-28T08:10:17;26.63;;;13.57;;
23498;SDS011;11926;48.120;11.562;2023-02-28T08:13:04;26.63;;;13.88;;
23498;SDS011;11926;48.120;11.562;2023-02-28T08:15:53;27.00;;;13.40;;
23498;SDS011;11926;48.120;11.562;2023-02-28T08:18:40;23.48;;;12.73;;
23498;SDS011;11926;48.120;11.562;2023-02-28T08:21:27;26.73;;;12.60;;
23498;SDS011;11926;48.120;11.562;2023-02-28T08:24:15;24.00;;;10.80;;
23498;SDS011;11926;48.120;11.562;2023-02-28T08:27:02;25.13;;;13.30;;
23498;SDS011;11926;48.120;11.562;2023-02-28T08:30:05;26.40;;;13.52;;
23498;SDS011;11926;48.120;11.562;2023-02-28T08:36:27;23.13;;;12.68;;
23498;SDS011;11926;48.120;11.562;2023-02-28T08:39:15;22.33;;;10.07;;
23498;SDS011;11926;48.120;11.562;2023-02-28T08:42:02;27.08;;;13.73;;
23498;SDS011;11926;48.120;11.562;2023-02-28T08:44:52;26.10;;;13.38;;
23498;SDS011;11926;48.120;11.562;2023-02-28T08:47:39;27.80;;;13.98;;
23498;SDS011;11926;48.120;11.562;2023-02-28T08:53:54;16.23;;;7.38;;
23498;SDS011;11926;48.120;11.562;2023-02-28T08:56:44;22.85;;;12.40;;
23498;SDS011;11926;48.120;11.562;2023-02-28T08:59:32;22.77;;;12.25;;
23498;SDS011;11926;48.120;11.562;2023-02-28T09:02:19;23.35;;;12.48;;
23498;SDS011;11926;48.120;11.562;2023-02-28T09:05:07;27.65;;;12.80;;
23498;SDS011;11926;48.120;11.562;2023-02-28T09:07:55;26.92;;;14.25;;
23498;SDS011;11926;48.120;11.562;2023-02-28T09:10:44;26.33;;;14.45;;
23498;SDS011;11926;48.120;11.562;2023-02-28T09:13:31;23.00;;;13.43;;
23498;SDS011;11926;48.120;11.562;2023-02-28T09:16:19;26.20;;;13.63;;
23498;SDS011;11926;48.120;11.562;2023-02-28T09:19:06;24.05;;;13.63;;
23498;SDS011;11926;48.120;11.562;2023-02-28T09:21:56;25.88;;;14.55;;
23498;SDS011;11926;48.120;11.562;2023-02-28T09:24:44;26.25;;;13.90;;
23498;SDS011;11926;48.120;11.562;2023-02-28T09:27:32;26.10;;;14.23;;
23498;SDS011;11926;48.120;11.562;2023-02-28T09:30:19;29.40;;;14.98;;
23498;SDS011;11926;48.120;11.562;2023-02-28T09:33:07;29.88;;;13.85;;
23498;SDS011;11926;48.120;11.562;2023-02-28T09:35:57;25.33;;;13.20;;
23498;SDS011;11926;48.120;11.562;2023-02-28T09:41:39;21.98;;;12.27;;
23498;SDS011;11926;48.120;11.562;2023-02-28T09:44:36;29.25;;;13.50;;
23498;SDS011;11926;48.120;11.562;2023-02-28T09:47:30;23.33;;;13.25;;
23498;SDS011;11926;48.120;11.562;2023-02-28T09:50:23;21.58;;;12.13;;
23498;SDS011;11926;48.120;11.562;2023-02-28T09:53:19;20.95;;;10.82;;
23498;SDS011;11926;48.120;11.562;2023-02-28T09:56:15;24.00;;;14.45;;
23498;SDS011;11926;48.120;11.562;2023-02-28T09:59:14;26.67;;;14.35;;
23498;SDS011;11926;48.120;11.562;2023-02-28T10:02:17;25.30;;;14.02;;
23498;SDS011;11926;48.120;11.562;2023-02-28T10:05:18;26.85;;;14.52;;
23498;SDS011;11926;48.120;11.562;2023-02-28T10:08:11;25.20;;;14.07;;
23498;SDS011;11926;48.120;11.562;2023-02-28T10:11:02;24.70;;;13.60;;
23498;SDS011;11926;48.120;11.562;2023-02-28T10:13:56;23.80;;;12.88;;
23498;SDS011;11926;48.120;11.562;2023-02-28T10:16:50;22.38;;;13.48;;
23498;SDS011;11926;48.120;11.562;2023-02-28T10:19:44;23.20;;;13.30;;
23498;SDS011;11926;48.120;11.562;2023-02-28T10:22:38;25.23;;;13.70;;
23498;SDS011;11926;48.120;11.562;2023-02-28T10:25:36;28.65;;;13.38;;
23498;SDS011;11926;48.120;11.562;2023-02-28T10:28:25;22.52;;;13.18;;
23498;SDS011;11926;48.120;11.562;2023-02-28T10:31:17;26.48;;;13.55;;
23498;SDS011;11926;48.120;11.562;2023-02-28T10:34:08;21.52;;;12.65;;
23498;SDS011;11926;48.120;11.562;2023-02-28T10:37:04;20.38;;;12.70;;
23498;SDS011;11926;48.120;11.562;2023-02-28T10:39:55;22.90;;;13.70;;
23498;SDS011;11926;48.120;11.562;2023-02-28T10:42:42;23.20;;;12.23;;
23498;SDS011;11926;48.120;11.562;2023-02-28T10:45:51;20.75;;;12.63;;
23498;SDS011;11926;48.120;11.562;2023-02-28T10:48:44;21.15;;;12.20;;
23498;SDS011;11926;48.120;11.562;2023-02-28T10:51:37;29.33;;;12.37;;
23498;SDS011;11926;48.120;11.562;2023-02-28T10:54:29;22.45;;;12.80;;
23498;SDS011;11926;48.120;11.562;2023-02-28T10:57:20;21.95;;;11.48;;
23498;SDS011;11926;48.120;11.562;2023-02-28T11:00:13;24.63;;;13.55;;
23498;SDS011;11926;48.120;11.562;2023-02-28T11:03:05;24.58;;;13.15;;
23498;SDS011;11926;48.120;11.562;2023-02-28T11:06:17;23.52;;;12.10;;
23498;SDS011;11926;48.120;11.562;2023-02-28T11:09:15;23.13;;;12.23;;
23498;SDS011;11926;48.120;11.562;2023-02-28T11:12:19;21.38;;;11.98;;
23498;SDS011;11926;48.120;11.562;2023-02-28T11:15:18;21.83;;;13.43;;
23498;SDS011;11926;48.120;11.562;2023-02-28T11:18:18;20.40;;;12.32;;
23498;SDS011;11926;48.120;11.562;2023-02-28T11:21:11;23.13;;;11.82;;
23498;SDS011;11926;48.120;11.562;2023-02-28T11:24:06;20.20;;;11.85;;
23498;SDS011;11926;48.120;11.562;2023-02-28T11:27:05;22.92;;;13.05;;
23498;SDS011;11926;48.120;11.562;2023-02-28T11:33:22;22.05;;;12.38;;
23498;SDS011;11926;48.120;11.562;2023-02-28T11:36:14;24.88;;;13.43;;
23498;SDS011;11926;48.120;11.562;2023-02-28T11:39:09;25.10;;;12.73;;
23498;SDS011;11926;48.120;11.562;2023-02-28T11:42:03;22.10;;;12.05;;
23498;SDS011;11926;48.120;11.562;2023-02-28T11:45:03;21.80;;;12.55;;
23498;SDS011;11926;48.120;11.562;2023-02-28T11:48:07;25.10;;;12.40;;
23498;SDS011;11926;48.120;11.562;2023-02-28T11:51:05;21.42;;;13.45;;
23498;SDS011;11926;48.120;11.562;2023-02-28T11:54:05;24.90;;;12.25;;
23498;SDS011;11926;48.120;11.562;2023-02-28T11:57:08;24.52;;;14.10;;
23498;SDS011;11926;48.120;11.562;2023-02-28T12:00:25;23.47;;;12.47;;
23498;SDS011;11926;48.120;11.562;2023-02-28T12:03:27;23.13;;;12.18;;
23498;SDS011;11926;48.120;11.562;2023-02-28T12:06:25;22.60;;;12.60;;
23498;SDS011;11926;48.120;11.562;2023-02-28T12:09:29;21.63;;;12.88;;
23498;SDS011;11926;48.120;11.562;2023-02-28T12:12:30;22.77;;;12.45;;
23498;SDS011;11926;48.120;11.562;2023-02-28T12:15:29;21.15;;;12.27;;
23498;SDS011;11926;48.120;11.562;2023-02-28T12:18:36;22.13;;;13.45;;
23498;SDS011;11926;48.120;11.562;2023-02-28T12:21:41;19.98;;;12.23;;
23498;SDS011;11926;48.120;11.562;2023-02-28T12:24:47;20.55;;;11.45;;
23498;SDS011;11926;48.120;11.562;2023-02-28T12:27:47;23.23;;;12.52;;
23498;SDS011;11926;48.120;11.562;2023-02-28T12:30:39;19.80;;;10.75;;
23498;SDS011;11926;48.120;11.562;2023-02-28T12:33:38;18.80;;;10.68;;
23498;SDS011;11926;48.120;11.562;2023-02-28T12:36:33;15.93;;;10.52;;
23498;SDS011;11926;48.120;11.562;2023-02-28T12:39:25;20.73;;;11.13;;
23498;SDS011;11926;48.120;11.562;2023-02-28T12:42:33;18.45;;;11.25;;
23498;SDS011;11926;48.120;11.562;2023-02-28T12:45:34;20.33;;;10.82;;
23498;SDS011;11926;48.120;11.562;2023-02-28T12:48:29;21.40;;;13.00;;
23498;SDS011;11926;48.120;11.562;2023-02-28T12:51:27;18.90;;;10.60;;
23498;SDS011;11926;48.120;11.562;2023-02-28T12:54:18;21.52;;;11.25;;
23498;SDS011;11926;48.120;11.562;2023-02-28T12:57:12;19.88;;;9.65;;
23498;SDS011;11926;48.120;11.562;2023-02-28T13:00:09;21.23;;;10.60;;
23498;SDS011;11926;48.120;11.562;2023-02-28T13:03:08;19.25;;;10.60;;
23498;SDS011;11926;48.120;11.562;2023-02-28T13:06:10;17.73;;;10.63;;
23498;SDS011;11926;48.120;11.562;2023-02-28T13:09:10;21.63;;;11.90;;
23498;SDS011;11926;48.120;11.562;2023-02-28T13:12:01;18.42;;;11.00;;
23498;SDS011;11926;48.120;11.562;2023-02-28T13:15:04;17.23;;;10.38;;
23498;SDS011;11926;48.120;11.562;2023-02-28T13:18:20;18.85;;;9.88;;
23498;SDS011;11926;48.120;11.562;2023-02-28T13:21:23;16.80;;;10.27;;
23498;SDS011;11926;48.120;11.562;2023-02-28T13:24:14;16.73;;;10.52;;
23498;SDS011;11926;48.120;11.562;2023-02-28T13:39:47;20.67;;;11.00;;
23498;SDS011;11926;48.120;11.562;2023-02-28T13:42:36;20.27;;;10.93;;
23498;SDS011;11926;48.120;11.562;2023-02-28T13:45:35;15.73;;;9.63;;
23498;SDS011;11926;48.120;11.562;2023-02-28T13:48:26;16.50;;;10.90;;
23498;SDS011;11926;48.120;11.562;2023-02-28T13:51:27;22.85;;;10.60;;
23498;SDS011;11926;48.120;11.562;2023-02-28T13:54:34;13.65;;;7.63;;
23498;SDS011;11926;48.120;11.562;2023-02-28T13:57:35;15.85;;;10.45;;
23498;SDS011;11926;48.120;11.562;2023-02-28T14:00:45;16.88;;;10.85;;
23498;SDS011;11926;48.120;11.562;2023-02-28T14:04:00;15.73;;;9.52;;
23498;SDS011;11926;48.120;11.562;2023-02-28T14:07:01;27.20;;;11.20;;
23498;SDS011;11926;48.120;11.562;2023-02-28T14:09:54;18.30;;;10.73;;
23498;SDS011;11926;48.120;11.562;2023-02-28T14:13:00;19.77;;;10.95;;
23498;SDS011;11926;48.120;11.562;2023-02-28T14:15:55;17.45;;;10.10;;
23498;SDS011;11926;48.120;11.562;2023-02-28T14:18:47;18.55;;;10.10;;
23498;SDS011;11926;48.120;11.562;2023-02-28T14:21:40;17.48;;;10.23;;
23498;SDS011;11926;48.120;11.562;2023-02-28T14:24:46;16.77;;;9.68;;
23498;SDS011;11926;48.120;11.562;2023-02-28T14:27:44;17.90;;;10.40;;
23498;SDS011;11926;48.120;11.562;2023-02-28T14:30:42;18.30;;;10.30;;
23498;SDS011;11926;48.120;11.562;2023-02-28T14:33:47;19.63;;;10.57;;
23498;SDS011;11926;48.120;11.562;2023-02-28T14:36:49;15.75;;;8.88;;
23498;SDS011;11926;48.120;11.562;2023-02-28T14:39:40;16.02;;;10.13;;
23498;SDS011;11926;48.120;11.562;2023-02-28T14:42:31;20.05;;;10.27;;
23498;SDS011;11926;48.120;11.562;2023-02-28T14:45:20;19.35;;;10.80;;
23498;SDS011;11926;48.120;11.562;2023-02-28T14:48:10;16.88;;;9.57;;
23498;SDS011;11926;48.120;11.562;2023-02-28T14:51:02;19.05;;;10.93;;
23498;SDS011;11926;48.120;11.562;2023-02-28T14:53:51;18.08;;;9.80;;
23498;SDS011;11926;48.120;11.562;2023-02-28T14:56:48;17.92;;;9.55;;
23498;SDS011;11926;48.120;11.562;2023-02-28T14:59:37;20.77;;;10.93;;
23498;SDS011;11926;48.120;11.562;2023-02-28T15:02:25;18.88;;;10.23;;
23498;SDS011;11926;48.120;11.562;2023-02-28T15:05:21;17.30;;;10.13;;
23498;SDS011;11926;48.120;11.562;2023-02-28T15:08:13;17.08;;;10.23;;
23498;SDS011;11926;48.120;11.562;2023-02-28T15:11:03;16.92;;;10.05;;
23498;SDS011;11926;48.120;11.562;2023-02-28T15:13:56;17.67;;;10.23;;
23498;SDS011;11926;48.120;11.562;2023-02-28T15:16:43;17.27;;;10.63;;
23498;SDS011;11926;48.120;11.562;2023-02-28T15:19:34;16.10;;;9.68;;
23498;SDS011;11926;48.120;11.562;2023-02-28T15:22:31;16.65;;;9.55;;
23498;SDS011;11926;48.120;11.562;2023-02-28T15:25:22;17.17;;;9.38;;
23498;SDS011;11926;48.120;11.562;2023-02-28T15:28:14;16.75;;;9.95;;
23498;SDS011;11926;48.120;11.562;2023-02-28T15:31:18;19.67;;;9.98;;
23498;SDS011;11926;48.120;11.562;2023-02-28T15:34:12;16.50;;;9.77;;
23498;SDS011;11926;48.120;11.562;2023-02-28T15:43:13;15.90;;;9.50;;
23498;SDS011;11926;48.120;11.562;2023-02-28T15:46:04;16.95;;;10.20;;
23498;SDS011;11926;48.120;11.562;2023-02-28T15:48:56;19.35;;;10.57;;
23498;SDS011;11926;48.120;11.562;2023-02-28T15:51:43;16.65;;;9.60;;
23498;SDS011;11926;48.120;11.562;2023-02-28T15:54:33;16.52;;;9.25;;
23498;SDS011;11926;48.120;11.562;2023-02-28T15:57:25;16.40;;;9.87;;
23498;SDS011;11926;48.120;11.562;2023-02-28T16:00:18;18.20;;;10.82;;
23498;SDS011;11926;48.120;11.562;2023-02-28T16:09:16;20.65;;;10.82;;
23498;SDS011;11926;48.120;11.562;2023-02-28T16:12:05;17.67;;;10.65;;
23498;SDS011;11926;48.120;11.562;2023-02-28T16:14:59;17.77;;;10.30;;
23498;SDS011;11926;48.120;11.562;2023-02-28T16:17:50;18.63;;;10.20;;
23498;SDS011;11926;48.120;11.562;2023-02-28T16:20:37;16.70;;;10.50;;
23498;SDS011;11926;48.120;11.562;2023-02-28T16:23:24;25.58;;;10.85;;
23498;SDS011;11926;48.120;11.562;2023-02-28T16:26:16;16.42;;;9.77;;
23498;SDS011;11926;48.120;11.562;2023-02-28T16:29:07;18.13;;;10.88;;
23498;SDS011;11926;48.120;11.562;2023-02-28T16:31:56;17.33;;;10.77;;
23498;SDS011;11926;48.120;11.562;2023-02-28T16:34:44;18.05;;;10.43;;
23498;SDS011;11926;48.120;11.562;2023-02-28T16:37:31;20.40;;;10.70;;
23498;SDS011;11926;48.120;11.562;2023-02-28T16:40:20;21.02;;;11.15;;
23498;SDS011;11926;48.120;11.562;2023-02-28T16:43:09;16.95;;;10.35;;
23498;SDS011;11926;48.120;11.562;2023-02-28T16:46:03;16.90;;;9.52;;
23498;SDS011;11926;48.120;11.562;2023-02-28T16:48:51;19.38;;;10.68;;
23498;SDS011;11926;48.120;11.562;2023-02-28T16:51:38;19.23;;;10.43;;
23498;SDS011;11926;48.120;11.562;2023-02-28T16:54:26;22.15;;;11.73;;
23498;SDS011;11926;48.120;11.562;2023-02-28T16:57:16;20.13;;;11.27;;
23498;SDS011;11926;48.120;11.562;2023-02-28T17:00:07;19.95;;;11.73;;
23498;SDS011;11926;48.120;11.562;2023-02-28T17:02:59;20.33;;;10.80;;
23498;SDS011;11926;48.120;11.562;2023-02-28T17:05:50;21.40;;;11.52;;
23498;SDS011;11926;48.120;11.562;2023-02-28T17:08:38;22.05;;;11.25;;
23498;SDS011;11926;48.120;11.562;2023-02-28T17:11:25;20.10;;;10.93;;
23498;SDS011;11926;48.120;11.562;2023-02-28T17:14:13;19.02;;;10.45;;
23498;SDS011;11926;48.120;11.562;2023-02-28T17:17:01;22.67;;;11.60;;
23498;SDS011;11926;48.120;11.562;2023-02-28T17:19:49;21.75;;;11.35;;
23498;SDS011;11926;48.120;11.562;2023-02-28T17:22:37;20.38;;;10.48;;
23498;SDS011;11926;48.120;11.562;2023-02-28T17:25:24;19.70;;;10.82;;
23498;SDS011;11926;48.120;11.562;2023-02-28T17:28:11;20.92;;;11.50;;
23498;SDS011;11926;48.120;11.562;2023-02-28T17:30:59;19.15;;;11.23;;